sensor_id;sensor_type;location;lat;lon;timestamp;P1;durP1;ratioP1;P2;durP2;ratioP2
54517;SDS011;40423;53.176;6.002;2023-06-26T00:00:31;9.77;;;8.75;;
54517;SDS011;40423;53.176;6.002;2023-06-26T00:02:57;9.90;;;8.50;;
54517;SDS011;40423;53.176;6.002;2023-06-26T00:05:23;11.35;;;9.15;;
54517;SDS011;40423;53.176;6.002;2023-06-26T00:07:49;9.73;;;7.95;;
54517;SDS011;40423;53.176;6.002;2023-06-26T00:10:14;9.25;;;8.30;;
54517;SDS011;40423;53.176;6.002;2023-06-26T00:12:40;10.68;;;9.32;;
54517;SDS011;40423;53.176;6.002;2023-06-26T00:15:06;10.75;;;9.18;;
54517;SDS011;40423;53.176;6.002;2023-06-26T00:17:33;10.02;;;8.85;;
54517;SDS011;40423;53.176;6.002;2023-06-26T00:20:02;8.88;;;7.97;;
54517;SDS011;40423;53.176;6.002;2023-06-26T00:22:28;9.45;;;8.65;;
54517;SDS011;40423;53.176;6.002;2023-06-26T00:24:54;8.75;;;7.85;;
54517;SDS011;40423;53.176;6.002;2023-06-26T00:27:20;11.30;;;9.82;;
54517;SDS011;40423;53.176;6.002;2023-06-26T00:29:45;9.98;;;8.98;;
54517;SDS011;40423;53.176;6.002;2023-06-26T00:32:11;9.70;;;8.70;;
54517;SDS011;40423;53.176;6.002;2023-06-26T00:34:37;11.07;;;9.45;;
54517;SDS011;40423;53.176;6.002;2023-06-26T00:37:02;10.00;;;9.00;;
54517;SDS011;40423;53.176;6.002;2023-06-26T00:39:29;11.50;;;8.77;;
54517;SDS011;40423;53.176;6.002;2023-06-26T00:41:54;10.15;;;8.68;;
54517;SDS011;40423;53.176;6.002;2023-06-26T00:44:20;12.63;;;8.93;;
54517;SDS011;40423;53.176;6.002;2023-06-26T00:46:46;11.15;;;8.52;;
54517;SDS011;40423;53.176;6.002;2023-06-26T00:49:12;10.13;;;9.05;;
54517;SDS011;40423;53.176;6.002;2023-06-26T00:51:38;9.55;;;8.65;;
54517;SDS011;40423;53.176;6.002;2023-06-26T00:54:05;10.25;;;9.25;;
54517;SDS011;40423;53.176;6.002;2023-06-26T00:56:31;9.05;;;8.02;;
54517;SDS011;40423;53.176;6.002;2023-06-26T00:58:57;9.65;;;8.73;;
54517;SDS011;40423;53.176;6.002;2023-06-26T01:01:23;10.57;;;9.52;;
54517;SDS011;40423;53.176;6.002;2023-06-26T01:03:50;10.48;;;9.48;;
54517;SDS011;40423;53.176;6.002;2023-06-26T01:06:18;9.50;;;8.50;;
54517;SDS011;40423;53.176;6.002;2023-06-26T01:08:46;10.93;;;8.30;;
54517;SDS011;40423;53.176;6.002;2023-06-26T01:11:13;9.35;;;8.45;;
54517;SDS011;40423;53.176;6.002;2023-06-26T01:13:40;9.93;;;9.00;;
54517;SDS011;40423;53.176;6.002;2023-06-26T01:16:09;10.07;;;9.07;;
54517;SDS011;40423;53.176;6.002;2023-06-26T01:18:35;10.73;;;8.88;;
54517;SDS011;40423;53.176;6.002;2023-06-26T01:21:08;10.03;;;9.03;;
54517;SDS011;40423;53.176;6.002;2023-06-26T01:23:46;10.65;;;9.50;;
54517;SDS011;40423;53.176;6.002;2023-06-26T01:26:19;11.13;;;9.95;;
54517;SDS011;40423;53.176;6.002;2023-06-26T01:28:46;11.38;;;10.15;;
54517;SDS011;40423;53.176;6.002;2023-06-26T01:31:15;11.82;;;10.63;;
54517;SDS011;40423;53.176;6.002;2023-06-26T01:33:42;13.05;;;11.43;;
54517;SDS011;40423;53.176;6.002;2023-06-26T01:36:08;12.30;;;10.20;;
54517;SDS011;40423;53.176;6.002;2023-06-26T01:38:35;12.68;;;11.38;;
54517;SDS011;40423;53.176;6.002;2023-06-26T01:41:01;11.77;;;10.57;;
54517;SDS011;40423;53.176;6.002;2023-06-26T01:46:36;13.18;;;11.77;;
54517;SDS011;40423;53.176;6.002;2023-06-26T01:51:45;12.20;;;10.98;;
54517;SDS011;40423;53.176;6.002;2023-06-26T01:54:16;12.35;;;10.75;;
54517;SDS011;40423;53.176;6.002;2023-06-26T01:56:48;12.10;;;10.70;;
54517;SDS011;40423;53.176;6.002;2023-06-26T01:59:15;12.65;;;11.38;;
54517;SDS011;40423;53.176;6.002;2023-06-26T02:01:42;13.82;;;11.23;;
54517;SDS011;40423;53.176;6.002;2023-06-26T02:04:08;11.85;;;10.65;;
54517;SDS011;40423;53.176;6.002;2023-06-26T02:06:34;12.02;;;10.82;;
54517;SDS011;40423;53.176;6.002;2023-06-26T02:09:00;12.13;;;10.93;;
54517;SDS011;40423;53.176;6.002;2023-06-26T02:11:25;13.23;;;11.95;;
54517;SDS011;40423;53.176;6.002;2023-06-26T02:13:51;12.80;;;11.60;;
54517;SDS011;40423;53.176;6.002;2023-06-26T02:16:17;14.32;;;12.25;;
54517;SDS011;40423;53.176;6.002;2023-06-26T02:18:42;13.35;;;12.05;;
54517;SDS011;40423;53.176;6.002;2023-06-26T02:21:08;12.13;;;10.77;;
54517;SDS011;40423;53.176;6.002;2023-06-26T02:23:34;13.23;;;11.52;;
54517;SDS011;40423;53.176;6.002;2023-06-26T02:26:00;12.55;;;11.25;;
54517;SDS011;40423;53.176;6.002;2023-06-26T02:28:26;13.32;;;11.38;;
54517;SDS011;40423;53.176;6.002;2023-06-26T02:30:52;12.63;;;11.32;;
54517;SDS011;40423;53.176;6.002;2023-06-26T02:33:17;12.85;;;11.55;;
54517;SDS011;40423;53.176;6.002;2023-06-26T02:35:43;10.77;;;9.77;;
54517;SDS011;40423;53.176;6.002;2023-06-26T02:38:09;12.68;;;11.38;;
54517;SDS011;40423;53.176;6.002;2023-06-26T02:40:35;12.52;;;11.43;;
54517;SDS011;40423;53.176;6.002;2023-06-26T02:43:00;14.27;;;11.75;;
54517;SDS011;40423;53.176;6.002;2023-06-26T02:45:26;13.98;;;12.68;;
54517;SDS011;40423;53.176;6.002;2023-06-26T02:47:52;12.02;;;10.93;;
54517;SDS011;40423;53.176;6.002;2023-06-26T02:50:17;13.15;;;11.95;;
54517;SDS011;40423;53.176;6.002;2023-06-26T02:52:43;13.38;;;11.98;;
54517;SDS011;40423;53.176;6.002;2023-06-26T02:55:09;14.10;;;12.52;;
54517;SDS011;40423;53.176;6.002;2023-06-26T02:57:34;14.05;;;12.57;;
54517;SDS011;40423;53.176;6.002;2023-06-26T03:00:00;12.90;;;11.57;;
54517;SDS011;40423;53.176;6.002;2023-06-26T03:02:26;15.07;;;11.93;;
54517;SDS011;40423;53.176;6.002;2023-06-26T03:04:52;12.13;;;10.90;;
54517;SDS011;40423;53.176;6.002;2023-06-26T03:07:17;12.77;;;10.95;;
54517;SDS011;40423;53.176;6.002;2023-06-26T03:09:43;12.75;;;11.45;;
54517;SDS011;40423;53.176;6.002;2023-06-26T03:12:09;11.10;;;9.98;;
54517;SDS011;40423;53.176;6.002;2023-06-26T03:14:35;12.30;;;10.32;;
54517;SDS011;40423;53.176;6.002;2023-06-26T03:17:00;13.48;;;10.50;;
54517;SDS011;40423;53.176;6.002;2023-06-26T03:19:28;11.75;;;9.63;;
54517;SDS011;40423;53.176;6.002;2023-06-26T03:21:54;13.02;;;9.93;;
54517;SDS011;40423;53.176;6.002;2023-06-26T03:24:20;12.98;;;10.07;;
54517;SDS011;40423;53.176;6.002;2023-06-26T03:26:46;17.20;;;11.00;;
54517;SDS011;40423;53.176;6.002;2023-06-26T03:29:11;12.07;;;10.30;;
54517;SDS011;40423;53.176;6.002;2023-06-26T03:31:37;11.32;;;9.60;;
54517;SDS011;40423;53.176;6.002;2023-06-26T03:34:03;12.52;;;9.65;;
54517;SDS011;40423;53.176;6.002;2023-06-26T03:36:28;13.95;;;9.75;;
54517;SDS011;40423;53.176;6.002;2023-06-26T03:38:54;12.38;;;10.50;;
54517;SDS011;40423;53.176;6.002;2023-06-26T03:41:22;13.98;;;10.00;;
54517;SDS011;40423;53.176;6.002;2023-06-26T03:43:48;11.25;;;9.75;;
54517;SDS011;40423;53.176;6.002;2023-06-26T03:46:14;11.15;;;9.02;;
54517;SDS011;40423;53.176;6.002;2023-06-26T03:48:40;11.07;;;9.10;;
54517;SDS011;40423;53.176;6.002;2023-06-26T03:51:06;13.77;;;9.73;;
54517;SDS011;40423;53.176;6.002;2023-06-26T03:53:32;13.90;;;9.30;;
54517;SDS011;40423;53.176;6.002;2023-06-26T03:55:58;13.48;;;9.98;;
54517;SDS011;40423;53.176;6.002;2023-06-26T03:58:24;12.88;;;10.32;;
54517;SDS011;40423;53.176;6.002;2023-06-26T04:00:50;14.10;;;10.70;;
54517;SDS011;40423;53.176;6.002;2023-06-26T04:03:16;15.65;;;10.57;;
54517;SDS011;40423;53.176;6.002;2023-06-26T04:05:42;15.23;;;10.93;;
54517;SDS011;40423;53.176;6.002;2023-06-26T04:08:08;17.92;;;10.35;;
54517;SDS011;40423;53.176;6.002;2023-06-26T04:10:34;16.88;;;11.95;;
54517;SDS011;40423;53.176;6.002;2023-06-26T04:13:01;21.45;;;12.05;;
54517;SDS011;40423;53.176;6.002;2023-06-26T04:15:27;16.77;;;13.05;;
54517;SDS011;40423;53.176;6.002;2023-06-26T04:17:53;18.55;;;12.68;;
54517;SDS011;40423;53.176;6.002;2023-06-26T04:20:19;19.40;;;12.98;;
54517;SDS011;40423;53.176;6.002;2023-06-26T04:22:44;22.48;;;13.13;;
54517;SDS011;40423;53.176;6.002;2023-06-26T04:25:10;19.05;;;10.82;;
54517;SDS011;40423;53.176;6.002;2023-06-26T04:27:38;19.20;;;12.90;;
54517;SDS011;40423;53.176;6.002;2023-06-26T04:30:04;20.02;;;13.38;;
54517;SDS011;40423;53.176;6.002;2023-06-26T04:32:30;21.63;;;12.82;;
54517;SDS011;40423;53.176;6.002;2023-06-26T04:34:56;19.77;;;12.48;;
54517;SDS011;40423;53.176;6.002;2023-06-26T04:37:22;18.95;;;13.10;;
54517;SDS011;40423;53.176;6.002;2023-06-26T04:39:49;19.08;;;12.02;;
54517;SDS011;40423;53.176;6.002;2023-06-26T04:42:15;19.70;;;11.15;;
54517;SDS011;40423;53.176;6.002;2023-06-26T04:44:41;14.43;;;10.10;;
54517;SDS011;40423;53.176;6.002;2023-06-26T04:47:07;18.13;;;10.18;;
54517;SDS011;40423;53.176;6.002;2023-06-26T04:49:33;15.55;;;9.52;;
54517;SDS011;40423;53.176;6.002;2023-06-26T04:51:59;15.30;;;9.13;;
54517;SDS011;40423;53.176;6.002;2023-06-26T04:54:25;15.52;;;8.60;;
54517;SDS011;40423;53.176;6.002;2023-06-26T04:56:51;14.50;;;7.43;;
54517;SDS011;40423;53.176;6.002;2023-06-26T04:59:17;17.67;;;7.38;;
54517;SDS011;40423;53.176;6.002;2023-06-26T05:01:43;12.38;;;5.50;;
54517;SDS011;40423;53.176;6.002;2023-06-26T05:04:13;15.25;;;6.18;;
54517;SDS011;40423;53.176;6.002;2023-06-26T05:06:40;14.65;;;5.90;;
54517;SDS011;40423;53.176;6.002;2023-06-26T05:09:06;20.05;;;6.03;;
54517;SDS011;40423;53.176;6.002;2023-06-26T05:11:32;18.73;;;5.88;;
54517;SDS011;40423;53.176;6.002;2023-06-26T05:13:57;15.27;;;6.18;;
54517;SDS011;40423;53.176;6.002;2023-06-26T05:16:23;18.85;;;6.25;;
54517;SDS011;40423;53.176;6.002;2023-06-26T05:18:49;15.05;;;5.53;;
54517;SDS011;40423;53.176;6.002;2023-06-26T05:21:15;16.13;;;5.40;;
54517;SDS011;40423;53.176;6.002;2023-06-26T05:23:41;18.95;;;5.93;;
54517;SDS011;40423;53.176;6.002;2023-06-26T05:26:09;15.20;;;5.88;;
54517;SDS011;40423;53.176;6.002;2023-06-26T05:28:36;16.80;;;5.57;;
54517;SDS011;40423;53.176;6.002;2023-06-26T05:31:02;18.27;;;5.47;;
54517;SDS011;40423;53.176;6.002;2023-06-26T05:33:30;18.35;;;5.07;;
54517;SDS011;40423;53.176;6.002;2023-06-26T05:35:59;16.20;;;5.32;;
54517;SDS011;40423;53.176;6.002;2023-06-26T05:38:27;15.10;;;4.88;;
54517;SDS011;40423;53.176;6.002;2023-06-26T05:40:53;15.77;;;5.80;;
54517;SDS011;40423;53.176;6.002;2023-06-26T05:43:19;14.95;;;4.93;;
54517;SDS011;40423;53.176;6.002;2023-06-26T05:45:48;13.32;;;5.03;;
54517;SDS011;40423;53.176;6.002;2023-06-26T05:48:14;12.77;;;4.53;;
54517;SDS011;40423;53.176;6.002;2023-06-26T05:50:39;12.32;;;4.32;;
54517;SDS011;40423;53.176;6.002;2023-06-26T05:53:07;12.32;;;4.20;;
54517;SDS011;40423;53.176;6.002;2023-06-26T05:55:33;13.35;;;4.78;;
54517;SDS011;40423;53.176;6.002;2023-06-26T05:58:00;10.27;;;4.15;;
54517;SDS011;40423;53.176;6.002;2023-06-26T06:00:28;12.20;;;4.20;;
54517;SDS011;40423;53.176;6.002;2023-06-26T06:02:54;12.77;;;4.10;;
54517;SDS011;40423;53.176;6.002;2023-06-26T06:05:20;13.98;;;4.45;;
54517;SDS011;40423;53.176;6.002;2023-06-26T06:07:47;14.90;;;3.70;;
54517;SDS011;40423;53.176;6.002;2023-06-26T06:10:13;12.32;;;3.58;;
54517;SDS011;40423;53.176;6.002;2023-06-26T06:12:39;11.05;;;3.65;;
54517;SDS011;40423;53.176;6.002;2023-06-26T06:15:05;10.32;;;3.20;;
54517;SDS011;40423;53.176;6.002;2023-06-26T06:17:31;9.80;;;3.17;;
54517;SDS011;40423;53.176;6.002;2023-06-26T06:19:57;6.80;;;2.67;;
54517;SDS011;40423;53.176;6.002;2023-06-26T06:22:22;9.63;;;2.95;;
54517;SDS011;40423;53.176;6.002;2023-06-26T06:24:49;10.90;;;3.08;;
54517;SDS011;40423;53.176;6.002;2023-06-26T06:27:15;9.80;;;3.25;;
54517;SDS011;40423;53.176;6.002;2023-06-26T06:29:41;11.15;;;3.55;;
54517;SDS011;40423;53.176;6.002;2023-06-26T06:32:07;10.18;;;3.08;;
54517;SDS011;40423;53.176;6.002;2023-06-26T06:34:33;8.80;;;3.40;;
54517;SDS011;40423;53.176;6.002;2023-06-26T06:36:59;9.02;;;2.70;;
54517;SDS011;40423;53.176;6.002;2023-06-26T06:39:24;9.30;;;3.00;;
54517;SDS011;40423;53.176;6.002;2023-06-26T06:41:50;11.95;;;3.10;;
54517;SDS011;40423;53.176;6.002;2023-06-26T06:44:16;15.13;;;3.63;;
54517;SDS011;40423;53.176;6.002;2023-06-26T06:46:42;9.82;;;4.03;;
54517;SDS011;40423;53.176;6.002;2023-06-26T06:49:08;9.10;;;2.95;;
54517;SDS011;40423;53.176;6.002;2023-06-26T06:51:34;13.55;;;2.90;;
54517;SDS011;40423;53.176;6.002;2023-06-26T06:54:00;12.27;;;3.05;;
54517;SDS011;40423;53.176;6.002;2023-06-26T06:56:27;7.85;;;2.80;;
54517;SDS011;40423;53.176;6.002;2023-06-26T06:58:53;7.18;;;2.53;;
54517;SDS011;40423;53.176;6.002;2023-06-26T07:01:18;7.82;;;2.70;;
54517;SDS011;40423;53.176;6.002;2023-06-26T07:03:44;9.93;;;3.00;;
54517;SDS011;40423;53.176;6.002;2023-06-26T07:06:10;8.25;;;2.67;;
54517;SDS011;40423;53.176;6.002;2023-06-26T07:08:35;9.32;;;2.42;;
54517;SDS011;40423;53.176;6.002;2023-06-26T07:11:01;10.32;;;2.90;;
54517;SDS011;40423;53.176;6.002;2023-06-26T07:13:28;8.18;;;2.85;;
54517;SDS011;40423;53.176;6.002;2023-06-26T07:15:53;4.20;;;2.10;;
54517;SDS011;40423;53.176;6.002;2023-06-26T07:18:19;10.55;;;2.58;;
54517;SDS011;40423;53.176;6.002;2023-06-26T07:20:45;7.18;;;2.60;;
54517;SDS011;40423;53.176;6.002;2023-06-26T07:23:10;5.75;;;1.90;;
54517;SDS011;40423;53.176;6.002;2023-06-26T07:25:36;5.55;;;2.08;;
54517;SDS011;40423;53.176;6.002;2023-06-26T07:28:02;8.93;;;2.42;;
54517;SDS011;40423;53.176;6.002;2023-06-26T07:30:28;5.82;;;2.50;;
54517;SDS011;40423;53.176;6.002;2023-06-26T07:32:54;5.63;;;2.60;;
54517;SDS011;40423;53.176;6.002;2023-06-26T07:35:19;9.30;;;2.28;;
54517;SDS011;40423;53.176;6.002;2023-06-26T07:37:45;7.78;;;1.88;;
54517;SDS011;40423;53.176;6.002;2023-06-26T07:40:11;4.97;;;2.00;;
54517;SDS011;40423;53.176;6.002;2023-06-26T07:42:37;8.70;;;2.88;;
54517;SDS011;40423;53.176;6.002;2023-06-26T07:45:03;8.38;;;2.58;;
54517;SDS011;40423;53.176;6.002;2023-06-26T07:47:36;6.10;;;2.60;;
54517;SDS011;40423;53.176;6.002;2023-06-26T07:50:02;8.05;;;2.70;;
54517;SDS011;40423;53.176;6.002;2023-06-26T07:52:28;5.63;;;2.13;;
54517;SDS011;40423;53.176;6.002;2023-06-26T07:54:55;6.03;;;2.30;;
54517;SDS011;40423;53.176;6.002;2023-06-26T07:57:21;7.15;;;2.42;;
54517;SDS011;40423;53.176;6.002;2023-06-26T07:59:47;7.47;;;2.55;;
54517;SDS011;40423;53.176;6.002;2023-06-26T08:02:13;6.70;;;2.50;;
54517;SDS011;40423;53.176;6.002;2023-06-26T08:04:38;5.50;;;2.20;;
54517;SDS011;40423;53.176;6.002;2023-06-26T08:07:04;7.05;;;2.72;;
54517;SDS011;40423;53.176;6.002;2023-06-26T08:09:30;4.43;;;2.60;;
54517;SDS011;40423;53.176;6.002;2023-06-26T08:11:56;3.95;;;2.40;;
54517;SDS011;40423;53.176;6.002;2023-06-26T08:14:22;7.22;;;2.45;;
54517;SDS011;40423;53.176;6.002;2023-06-26T08:16:48;6.68;;;2.13;;
54517;SDS011;40423;53.176;6.002;2023-06-26T08:19:15;6.85;;;3.05;;
54517;SDS011;40423;53.176;6.002;2023-06-26T08:21:41;6.78;;;2.78;;
54517;SDS011;40423;53.176;6.002;2023-06-26T08:24:11;5.35;;;2.53;;
54517;SDS011;40423;53.176;6.002;2023-06-26T08:26:38;6.50;;;3.10;;
54517;SDS011;40423;53.176;6.002;2023-06-26T08:29:04;6.53;;;2.20;;
54517;SDS011;40423;53.176;6.002;2023-06-26T08:31:36;6.60;;;2.15;;
54517;SDS011;40423;53.176;6.002;2023-06-26T08:34:03;8.13;;;2.70;;
54517;SDS011;40423;53.176;6.002;2023-06-26T08:36:29;4.82;;;2.50;;
54517;SDS011;40423;53.176;6.002;2023-06-26T08:38:55;8.48;;;2.63;;
54517;SDS011;40423;53.176;6.002;2023-06-26T08:41:21;5.45;;;2.17;;
54517;SDS011;40423;53.176;6.002;2023-06-26T08:43:46;5.70;;;2.20;;
54517;SDS011;40423;53.176;6.002;2023-06-26T08:46:13;5.15;;;2.40;;
54517;SDS011;40423;53.176;6.002;2023-06-26T08:48:39;7.78;;;3.20;;
54517;SDS011;40423;53.176;6.002;2023-06-26T08:51:13;6.45;;;2.78;;
54517;SDS011;40423;53.176;6.002;2023-06-26T08:53:58;5.70;;;2.38;;
54517;SDS011;40423;53.176;6.002;2023-06-26T08:56:30;7.13;;;3.22;;
54517;SDS011;40423;53.176;6.002;2023-06-26T08:59:00;6.47;;;2.90;;
54517;SDS011;40423;53.176;6.002;2023-06-26T09:01:26;8.93;;;3.28;;
54517;SDS011;40423;53.176;6.002;2023-06-26T09:03:53;5.97;;;3.08;;
54517;SDS011;40423;53.176;6.002;2023-06-26T09:06:19;11.65;;;3.05;;
54517;SDS011;40423;53.176;6.002;2023-06-26T09:08:44;6.60;;;2.90;;
54517;SDS011;40423;53.176;6.002;2023-06-26T09:11:10;8.38;;;3.10;;
54517;SDS011;40423;53.176;6.002;2023-06-26T09:13:36;7.43;;;3.20;;
54517;SDS011;40423;53.176;6.002;2023-06-26T09:16:06;6.70;;;3.50;;
54517;SDS011;40423;53.176;6.002;2023-06-26T09:18:33;7.93;;;3.17;;
54517;SDS011;40423;53.176;6.002;2023-06-26T09:20:58;8.25;;;3.15;;
54517;SDS011;40423;53.176;6.002;2023-06-26T09:23:24;7.20;;;3.25;;
54517;SDS011;40423;53.176;6.002;2023-06-26T09:25:51;7.45;;;2.95;;
54517;SDS011;40423;53.176;6.002;2023-06-26T09:28:17;5.60;;;3.03;;
54517;SDS011;40423;53.176;6.002;2023-06-26T09:30:44;8.70;;;3.35;;
54517;SDS011;40423;53.176;6.002;2023-06-26T09:33:19;10.00;;;3.50;;
54517;SDS011;40423;53.176;6.002;2023-06-26T09:35:46;9.80;;;4.13;;
54517;SDS011;40423;53.176;6.002;2023-06-26T09:38:12;8.88;;;3.72;;
54517;SDS011;40423;53.176;6.002;2023-06-26T09:40:39;8.13;;;3.60;;
54517;SDS011;40423;53.176;6.002;2023-06-26T09:43:05;6.50;;;3.95;;
54517;SDS011;40423;53.176;6.002;2023-06-26T09:45:34;9.45;;;3.83;;
54517;SDS011;40423;53.176;6.002;2023-06-26T09:48:03;10.63;;;4.07;;
54517;SDS011;40423;53.176;6.002;2023-06-26T09:50:30;7.13;;;4.07;;
54517;SDS011;40423;53.176;6.002;2023-06-26T09:53:03;8.05;;;4.32;;
54517;SDS011;40423;53.176;6.002;2023-06-26T09:55:36;7.65;;;3.92;;
54517;SDS011;40423;53.176;6.002;2023-06-26T09:58:02;8.20;;;3.97;;
54517;SDS011;40423;53.176;6.002;2023-06-26T10:00:30;7.90;;;4.05;;
54517;SDS011;40423;53.176;6.002;2023-06-26T10:02:57;6.18;;;3.67;;
54517;SDS011;40423;53.176;6.002;2023-06-26T10:05:26;7.88;;;3.60;;
54517;SDS011;40423;53.176;6.002;2023-06-26T10:07:52;7.65;;;3.45;;
54517;SDS011;40423;53.176;6.002;2023-06-26T10:10:19;7.97;;;3.00;;
54517;SDS011;40423;53.176;6.002;2023-06-26T10:12:48;7.88;;;3.08;;
54517;SDS011;40423;53.176;6.002;2023-06-26T10:15:16;7.07;;;3.22;;
54517;SDS011;40423;53.176;6.002;2023-06-26T10:17:45;6.93;;;3.40;;
54517;SDS011;40423;53.176;6.002;2023-06-26T10:20:12;5.32;;;2.83;;
54517;SDS011;40423;53.176;6.002;2023-06-26T10:22:46;9.80;;;3.33;;
54517;SDS011;40423;53.176;6.002;2023-06-26T10:25:14;7.70;;;3.17;;
54517;SDS011;40423;53.176;6.002;2023-06-26T10:27:44;6.00;;;2.60;;
54517;SDS011;40423;53.176;6.002;2023-06-26T10:30:15;10.38;;;3.47;;
54517;SDS011;40423;53.176;6.002;2023-06-26T10:32:44;7.90;;;2.60;;
54517;SDS011;40423;53.176;6.002;2023-06-26T10:35:11;10.35;;;2.70;;
54517;SDS011;40423;53.176;6.002;2023-06-26T10:37:44;9.05;;;2.22;;
54517;SDS011;40423;53.176;6.002;2023-06-26T10:40:21;5.93;;;2.50;;
54517;SDS011;40423;53.176;6.002;2023-06-26T10:42:50;6.20;;;2.08;;
54517;SDS011;40423;53.176;6.002;2023-06-26T10:45:17;9.98;;;1.92;;
54517;SDS011;40423;53.176;6.002;2023-06-26T10:47:48;6.55;;;2.50;;
54517;SDS011;40423;53.176;6.002;2023-06-26T10:53:09;10.18;;;2.42;;
54517;SDS011;40423;53.176;6.002;2023-06-26T10:55:43;7.65;;;2.30;;
54517;SDS011;40423;53.176;6.002;2023-06-26T10:58:30;6.57;;;2.05;;
54517;SDS011;40423;53.176;6.002;2023-06-26T11:03:40;6.80;;;1.80;;
54517;SDS011;40423;53.176;6.002;2023-06-26T11:11:14;8.73;;;2.35;;
54517;SDS011;40423;53.176;6.002;2023-06-26T11:13:41;5.28;;;2.08;;
54517;SDS011;40423;53.176;6.002;2023-06-26T11:16:08;9.27;;;2.58;;
54517;SDS011;40423;53.176;6.002;2023-06-26T11:18:33;7.82;;;2.05;;
54517;SDS011;40423;53.176;6.002;2023-06-26T11:21:06;7.70;;;2.08;;
54517;SDS011;40423;53.176;6.002;2023-06-26T11:23:33;5.57;;;1.90;;
54517;SDS011;40423;53.176;6.002;2023-06-26T11:26:16;12.32;;;2.25;;
54517;SDS011;40423;53.176;6.002;2023-06-26T11:28:50;10.60;;;2.30;;
54517;SDS011;40423;53.176;6.002;2023-06-26T11:31:24;7.60;;;2.08;;
54517;SDS011;40423;53.176;6.002;2023-06-26T11:33:50;7.82;;;2.45;;
54517;SDS011;40423;53.176;6.002;2023-06-26T11:36:16;8.07;;;2.20;;
54517;SDS011;40423;53.176;6.002;2023-06-26T11:38:42;9.25;;;2.65;;
54517;SDS011;40423;53.176;6.002;2023-06-26T11:41:07;9.13;;;2.67;;
54517;SDS011;40423;53.176;6.002;2023-06-26T11:43:34;8.48;;;2.00;;
54517;SDS011;40423;53.176;6.002;2023-06-26T11:46:00;8.63;;;2.55;;
54517;SDS011;40423;53.176;6.002;2023-06-26T11:48:26;7.32;;;2.28;;
54517;SDS011;40423;53.176;6.002;2023-06-26T11:50:51;9.32;;;2.42;;
54517;SDS011;40423;53.176;6.002;2023-06-26T11:53:17;8.95;;;2.20;;
54517;SDS011;40423;53.176;6.002;2023-06-26T11:55:43;7.30;;;2.72;;
54517;SDS011;40423;53.176;6.002;2023-06-26T11:58:08;9.40;;;2.05;;
54517;SDS011;40423;53.176;6.002;2023-06-26T12:00:34;8.10;;;2.13;;
54517;SDS011;40423;53.176;6.002;2023-06-26T12:03:00;11.48;;;3.35;;
54517;SDS011;40423;53.176;6.002;2023-06-26T12:05:28;6.65;;;2.38;;
54517;SDS011;40423;53.176;6.002;2023-06-26T12:07:54;7.00;;;2.35;;
54517;SDS011;40423;53.176;6.002;2023-06-26T12:10:22;7.50;;;2.60;;
54517;SDS011;40423;53.176;6.002;2023-06-26T12:12:48;6.03;;;2.00;;
54517;SDS011;40423;53.176;6.002;2023-06-26T12:15:14;6.20;;;2.05;;
54517;SDS011;40423;53.176;6.002;2023-06-26T12:17:41;7.25;;;2.28;;
54517;SDS011;40423;53.176;6.002;2023-06-26T12:20:17;8.18;;;2.10;;
54517;SDS011;40423;53.176;6.002;2023-06-26T12:22:47;7.90;;;1.90;;
54517;SDS011;40423;53.176;6.002;2023-06-26T12:25:13;6.07;;;1.90;;
54517;SDS011;40423;53.176;6.002;2023-06-26T12:27:40;11.95;;;2.50;;
54517;SDS011;40423;53.176;6.002;2023-06-26T12:30:06;6.03;;;2.13;;
54517;SDS011;40423;53.176;6.002;2023-06-26T12:32:32;7.70;;;2.80;;
54517;SDS011;40423;53.176;6.002;2023-06-26T12:35:00;10.70;;;3.10;;
54517;SDS011;40423;53.176;6.002;2023-06-26T12:37:26;7.78;;;2.13;;
54517;SDS011;40423;53.176;6.002;2023-06-26T12:39:56;9.85;;;2.70;;
54517;SDS011;40423;53.176;6.002;2023-06-26T12:42:26;6.40;;;2.10;;
54517;SDS011;40423;53.176;6.002;2023-06-26T12:44:53;8.02;;;2.35;;
54517;SDS011;40423;53.176;6.002;2023-06-26T12:47:25;6.63;;;2.25;;
54517;SDS011;40423;53.176;6.002;2023-06-26T12:49:53;8.55;;;2.38;;
54517;SDS011;40423;53.176;6.002;2023-06-26T12:52:19;8.02;;;2.05;;
54517;SDS011;40423;53.176;6.002;2023-06-26T12:54:46;8.35;;;2.22;;
54517;SDS011;40423;53.176;6.002;2023-06-26T12:57:16;7.53;;;2.13;;
54517;SDS011;40423;53.176;6.002;2023-06-26T12:59:42;6.45;;;2.05;;
54517;SDS011;40423;53.176;6.002;2023-06-26T13:02:08;8.05;;;2.22;;
54517;SDS011;40423;53.176;6.002;2023-06-26T13:04:36;7.45;;;2.15;;
54517;SDS011;40423;53.176;6.002;2023-06-26T13:07:04;6.20;;;1.98;;
54517;SDS011;40423;53.176;6.002;2023-06-26T13:09:32;7.15;;;1.80;;
54517;SDS011;40423;53.176;6.002;2023-06-26T13:12:00;6.50;;;2.63;;
54517;SDS011;40423;53.176;6.002;2023-06-26T13:14:28;7.80;;;1.90;;
54517;SDS011;40423;53.176;6.002;2023-06-26T13:16:55;5.40;;;1.85;;
54517;SDS011;40423;53.176;6.002;2023-06-26T13:19:20;6.93;;;2.33;;
54517;SDS011;40423;53.176;6.002;2023-06-26T13:21:46;8.15;;;1.85;;
54517;SDS011;40423;53.176;6.002;2023-06-26T13:24:12;5.15;;;2.00;;
54517;SDS011;40423;53.176;6.002;2023-06-26T13:26:38;6.70;;;1.98;;
54517;SDS011;40423;53.176;6.002;2023-06-26T13:29:04;6.82;;;1.80;;
54517;SDS011;40423;53.176;6.002;2023-06-26T13:31:31;5.63;;;2.10;;
54517;SDS011;40423;53.176;6.002;2023-06-26T13:33:57;6.63;;;1.95;;
54517;SDS011;40423;53.176;6.002;2023-06-26T13:36:23;8.48;;;2.92;;
54517;SDS011;40423;53.176;6.002;2023-06-26T13:38:50;3.78;;;2.00;;
54517;SDS011;40423;53.176;6.002;2023-06-26T13:41:21;6.80;;;2.03;;
54517;SDS011;40423;53.176;6.002;2023-06-26T13:43:50;6.15;;;1.70;;
54517;SDS011;40423;53.176;6.002;2023-06-26T13:46:16;5.57;;;1.65;;
54517;SDS011;40423;53.176;6.002;2023-06-26T13:48:43;6.72;;;2.65;;
54517;SDS011;40423;53.176;6.002;2023-06-26T13:51:09;6.00;;;2.00;;
54517;SDS011;40423;53.176;6.002;2023-06-26T13:53:35;8.00;;;2.20;;
54517;SDS011;40423;53.176;6.002;2023-06-26T13:56:01;5.82;;;1.92;;
54517;SDS011;40423;53.176;6.002;2023-06-26T13:58:26;6.40;;;1.80;;
54517;SDS011;40423;53.176;6.002;2023-06-26T14:00:53;6.55;;;1.60;;
54517;SDS011;40423;53.176;6.002;2023-06-26T14:03:19;5.95;;;1.70;;
54517;SDS011;40423;53.176;6.002;2023-06-26T14:05:45;9.63;;;2.72;;
54517;SDS011;40423;53.176;6.002;2023-06-26T14:08:10;7.72;;;2.33;;
54517;SDS011;40423;53.176;6.002;2023-06-26T14:10:37;8.30;;;1.80;;
54517;SDS011;40423;53.176;6.002;2023-06-26T14:13:03;6.32;;;1.88;;
54517;SDS011;40423;53.176;6.002;2023-06-26T14:15:29;6.22;;;1.85;;
54517;SDS011;40423;53.176;6.002;2023-06-26T14:17:55;10.45;;;2.97;;
54517;SDS011;40423;53.176;6.002;2023-06-26T14:20:21;5.45;;;2.08;;
54517;SDS011;40423;53.176;6.002;2023-06-26T14:22:48;7.57;;;2.25;;
54517;SDS011;40423;53.176;6.002;2023-06-26T14:25:14;7.72;;;2.10;;
54517;SDS011;40423;53.176;6.002;2023-06-26T14:27:41;7.57;;;1.80;;
54517;SDS011;40423;53.176;6.002;2023-06-26T14:30:07;6.28;;;2.45;;
54517;SDS011;40423;53.176;6.002;2023-06-26T14:32:33;5.68;;;1.77;;
54517;SDS011;40423;53.176;6.002;2023-06-26T14:35:00;6.13;;;1.77;;
54517;SDS011;40423;53.176;6.002;2023-06-26T14:37:26;5.75;;;2.10;;
54517;SDS011;40423;53.176;6.002;2023-06-26T14:39:54;4.65;;;1.77;;
54517;SDS011;40423;53.176;6.002;2023-06-26T14:42:20;8.13;;;2.08;;
54517;SDS011;40423;53.176;6.002;2023-06-26T14:44:46;7.03;;;1.80;;
54517;SDS011;40423;53.176;6.002;2023-06-26T14:47:16;5.70;;;1.90;;
54517;SDS011;40423;53.176;6.002;2023-06-26T14:49:42;6.63;;;1.95;;
54517;SDS011;40423;53.176;6.002;2023-06-26T14:52:08;9.45;;;1.80;;